Terminal Aerodrome Forecast
Issued by NWS

Home | Current Version | Previous Version | Text Only | Print | Product List | Glossary On
Versions: 1 2 3 4 5 6 7 8 9 10 11 12
000
FTPQ31 PGUM 221734
TAFGUM
TAF

TAF
PKMJ 221734Z 2218/2318 05014KT P6SM VCSH SCT016 BKN040 OVC120
      TEMPO 2218/2222 -SHRA SCT014 BKN025=

USA.gov is the U.S. government's official web portal to all federal, state and local government web resources and services.